AAR8982 RKPC-RKSS
Flight info
| Callsign | AAR8982 |
|---|---|
| Flight time | 0h 51m |
| Altitude | 23000 |
| Route | KAMIT2E KAMIT Y722 OLMEN OLMEN2U |
| Aircraft | A320/M-SDE3FGHIRWY/LB1 |
Departure
| Time | 2025-09-05 13:17 |
|---|---|
| Airport | Jeju International Airport (RKPC) |
Arrival
| Time | 2025-09-05 14:08 |
|---|---|
| Airport | Gimpo International Airport (RKSS) |
| Time | Latitude | Longitude | Altitude | Speed | Heading |
|---|---|---|---|---|---|
| 2025-09-05 12:40 | 33.50780 | 126.49299 | 93 ft | 0 kts | 182° |
| 2025-09-05 13:04 | 33.50827 | 126.49301 | 92 ft | 3 kts | 182° |
| 2025-09-05 13:04 | 33.50866 | 126.49308 | 93 ft | 8 kts | 206° |
| 2025-09-05 13:05 | 33.50897 | 126.49338 | 93 ft | 8 kts | 235° |
| 2025-09-05 13:05 | 33.50908 | 126.49357 | 93 ft | 33 kts | 238° |
| 2025-09-05 13:08 | 33.50879 | 126.49302 | 95 ft | 9 kts | 238° |
| 2025-09-05 13:09 | 33.50807 | 126.49163 | 94 ft | 12 kts | 238° |
| 2025-09-05 13:09 | 33.50688 | 126.48933 | 94 ft | 17 kts | 238° |
| 2025-09-05 13:10 | 33.50556 | 126.48674 | 95 ft | 20 kts | 238° |
| 2025-09-05 13:10 | 33.50625 | 126.48461 | 96 ft | 9 kts | 249° |
| 2025-09-05 13:11 | 33.50522 | 126.48263 | 95 ft | 19 kts | 238° |
| 2025-09-05 13:11 | 33.50448 | 126.48113 | 94 ft | 22 kts | 238° |
| 2025-09-05 13:12 | 33.50225 | 126.47683 | 96 ft | 17 kts | 237° |
| 2025-09-05 13:12 | 33.50106 | 126.47451 | 95 ft | 17 kts | 238° |
| 2025-09-05 13:12 | 33.50043 | 126.47329 | 93 ft | 18 kts | 238° |
| 2025-09-05 13:13 | 33.49899 | 126.46932 | 95 ft | 17 kts | 316° |
| 2025-09-05 13:13 | 33.49911 | 126.46922 | 94 ft | 0 kts | 325° |
| 2025-09-05 13:14 | 33.49918 | 126.46916 | 93 ft | 5 kts | 325° |
| 2025-09-05 13:15 | 33.50052 | 126.46959 | 91 ft | 12 kts | 57° |
| 2025-09-05 13:15 | 33.50061 | 126.46975 | 90 ft | 1 kts | 57° |
| 2025-09-05 13:16 | 33.50868 | 126.48552 | 95 ft | 166 kts | 58° |
| 2025-09-05 13:16 | 33.52198 | 126.51057 | 1230 ft | 181 kts | 52° |
| 2025-09-05 13:17 | 33.54003 | 126.53139 | 2685 ft | 177 kts | 43° |
| 2025-09-05 13:17 | 33.56010 | 126.55213 | 3657 ft | 202 kts | 43° |
| 2025-09-05 13:18 | 33.58194 | 126.57620 | 4190 ft | 232 kts | 44° |
| 2025-09-05 13:18 | 33.60764 | 126.60576 | 4613 ft | 276 kts | 44° |
| 2025-09-05 13:18 | 33.62171 | 126.62175 | 5218 ft | 281 kts | 44° |
| 2025-09-05 13:19 | 33.65067 | 126.65442 | 6519 ft | 289 kts | 44° |
| 2025-09-05 13:20 | 33.69667 | 126.70321 | 8371 ft | 299 kts | 30° |
| 2025-09-05 13:20 | 33.73654 | 126.71715 | 9559 ft | 303 kts | 3° |
| 2025-09-05 13:21 | 33.77985 | 126.72151 | 10209 ft | 329 kts | 3° |
| 2025-09-05 13:21 | 33.82803 | 126.72651 | 10443 ft | 364 kts | 4° |
| 2025-09-05 13:22 | 33.88062 | 126.73203 | 10712 ft | 392 kts | 4° |
| 2025-09-05 13:22 | 33.93566 | 126.73791 | 11437 ft | 401 kts | 4° |
| 2025-09-05 13:22 | 33.96350 | 126.74087 | 11840 ft | 403 kts | 3° |
| 2025-09-05 13:23 | 34.01982 | 126.74681 | 12640 ft | 408 kts | 3° |
| 2025-09-05 13:24 | 34.10539 | 126.75581 | 13822 ft | 415 kts | 3° |
| 2025-09-05 13:24 | 34.16331 | 126.76188 | 14489 ft | 419 kts | 3° |
| 2025-09-05 13:25 | 34.22173 | 126.76809 | 15123 ft | 423 kts | 3° |
| 2025-09-05 13:25 | 34.28069 | 126.77436 | 15776 ft | 427 kts | 3° |
| 2025-09-05 13:26 | 34.34012 | 126.78073 | 16427 ft | 431 kts | 3° |
| 2025-09-05 13:26 | 34.40007 | 126.78711 | 17046 ft | 435 kts | 3° |
| 2025-09-05 13:26 | 34.43024 | 126.79033 | 17354 ft | 436 kts | 3° |
| 2025-09-05 13:27 | 34.49104 | 126.79676 | 17968 ft | 440 kts | 3° |
| 2025-09-05 13:28 | 34.58312 | 126.80660 | 18796 ft | 446 kts | 4° |
| 2025-09-05 13:28 | 34.64513 | 126.81328 | 19300 ft | 449 kts | 4° |
| 2025-09-05 13:29 | 34.69754 | 126.81886 | 19703 ft | 452 kts | 4° |
| 2025-09-05 13:29 | 34.77084 | 126.82670 | 20259 ft | 457 kts | 4° |
| 2025-09-05 13:30 | 34.82413 | 126.83238 | 20656 ft | 460 kts | 4° |
| 2025-09-05 13:30 | 34.85609 | 126.83583 | 20884 ft | 462 kts | 4° |
| 2025-09-05 13:30 | 34.93088 | 126.84399 | 21374 ft | 466 kts | 4° |
| 2025-09-05 13:31 | 34.98521 | 126.84983 | 21740 ft | 469 kts | 4° |
| 2025-09-05 13:32 | 35.08326 | 126.86039 | 22364 ft | 474 kts | 4° |
| 2025-09-05 13:32 | 35.14922 | 126.86751 | 22749 ft | 477 kts | 4° |
| 2025-09-05 13:33 | 35.21557 | 126.87472 | 22982 ft | 483 kts | 4° |
| 2025-09-05 13:33 | 35.28283 | 126.88206 | 22970 ft | 486 kts | 4° |
| 2025-09-05 13:34 | 35.35024 | 126.88947 | 22969 ft | 487 kts | 4° |
| 2025-09-05 13:34 | 35.38398 | 126.89315 | 22975 ft | 486 kts | 4° |
| 2025-09-05 13:34 | 35.45140 | 126.90043 | 22968 ft | 486 kts | 4° |
| 2025-09-05 13:35 | 35.51886 | 126.90776 | 22959 ft | 486 kts | 4° |
| 2025-09-05 13:36 | 35.61986 | 126.91880 | 22947 ft | 485 kts | 4° |
| 2025-09-05 13:36 | 35.68709 | 126.92616 | 22942 ft | 485 kts | 4° |
| 2025-09-05 13:37 | 35.75430 | 126.93356 | 22944 ft | 485 kts | 4° |
| 2025-09-05 13:37 | 35.82148 | 126.94096 | 22937 ft | 485 kts | 4° |
| 2025-09-05 13:38 | 35.88869 | 126.94837 | 22937 ft | 485 kts | 4° |
| 2025-09-05 13:38 | 35.92232 | 126.95210 | 22937 ft | 485 kts | 4° |
| 2025-09-05 13:38 | 35.99020 | 126.95963 | 22605 ft | 495 kts | 4° |
| 2025-09-05 13:39 | 36.05803 | 126.96715 | 21090 ft | 483 kts | 4° |
| 2025-09-05 13:40 | 36.15649 | 126.97807 | 19169 ft | 467 kts | 3° |
| 2025-09-05 13:40 | 36.22114 | 126.98527 | 18934 ft | 465 kts | 3° |
| 2025-09-05 13:41 | 36.28565 | 126.99245 | 18943 ft | 465 kts | 3° |
| 2025-09-05 13:41 | 36.34984 | 126.99966 | 18416 ft | 457 kts | 3° |
| 2025-09-05 13:42 | 36.41258 | 127.00260 | 17136 ft | 449 kts | 355° |
| 2025-09-05 13:42 | 36.44380 | 127.00130 | 16945 ft | 449 kts | 356° |
| 2025-09-05 13:42 | 36.50631 | 126.99912 | 16954 ft | 450 kts | 356° |
| 2025-09-05 13:43 | 36.56799 | 126.99702 | 16140 ft | 442 kts | 356° |
| 2025-09-05 13:44 | 36.65902 | 126.99389 | 15952 ft | 429 kts | 356° |
| 2025-09-05 13:44 | 36.71930 | 127.00292 | 15933 ft | 417 kts | 15° |
| 2025-09-05 13:45 | 36.76817 | 127.03102 | 15631 ft | 369 kts | 32° |
| 2025-09-05 13:45 | 36.80584 | 127.06993 | 15174 ft | 344 kts | 41° |
| 2025-09-05 13:46 | 36.84093 | 127.11033 | 14936 ft | 340 kts | 41° |
| 2025-09-05 13:46 | 36.85812 | 127.13004 | 14942 ft | 340 kts | 41° |
| 2025-09-05 13:46 | 36.89317 | 127.17032 | 14943 ft | 340 kts | 41° |
| 2025-09-05 13:47 | 36.92798 | 127.21040 | 14944 ft | 340 kts | 41° |
| 2025-09-05 13:48 | 36.97985 | 127.27031 | 14943 ft | 339 kts | 41° |
| 2025-09-05 13:48 | 37.01453 | 127.31043 | 14940 ft | 340 kts | 41° |
| 2025-09-05 13:48 | 37.03193 | 127.33061 | 14888 ft | 341 kts | 41° |
| 2025-09-05 13:49 | 37.06654 | 127.37080 | 14565 ft | 338 kts | 42° |
| 2025-09-05 13:49 | 37.10101 | 127.41087 | 14304 ft | 338 kts | 41° |
| 2025-09-05 13:50 | 37.14100 | 127.43973 | 14043 ft | 332 kts | 12° |
| 2025-09-05 13:50 | 37.18636 | 127.44400 | 13736 ft | 327 kts | 356° |
| 2025-09-05 13:51 | 37.22925 | 127.43037 | 13427 ft | 316 kts | 325° |
| 2025-09-05 13:52 | 37.27139 | 127.37009 | 13025 ft | 307 kts | 301° |
| 2025-09-05 13:52 | 37.29578 | 127.32619 | 12756 ft | 305 kts | 302° |
| 2025-09-05 13:53 | 37.31996 | 127.28266 | 12489 ft | 304 kts | 302° |
| 2025-09-05 13:53 | 37.34408 | 127.23914 | 12222 ft | 303 kts | 302° |
| 2025-09-05 13:54 | 37.36484 | 127.19359 | 11919 ft | 297 kts | 284° |
| 2025-09-05 13:54 | 37.36967 | 127.16856 | 11626 ft | 294 kts | 280° |
| 2025-09-05 13:54 | 37.37878 | 127.11863 | 11086 ft | 292 kts | 281° |
| 2025-09-05 13:55 | 37.38793 | 127.06897 | 10539 ft | 290 kts | 281° |
| 2025-09-05 13:56 | 37.40149 | 126.99501 | 9740 ft | 288 kts | 281° |
| 2025-09-05 13:56 | 37.41079 | 126.94626 | 9139 ft | 285 kts | 282° |
| 2025-09-05 13:57 | 37.42530 | 126.89967 | 8844 ft | 286 kts | 290° |
| 2025-09-05 13:57 | 37.44071 | 126.85367 | 8598 ft | 285 kts | 290° |
| 2025-09-05 13:57 | 37.44839 | 126.83070 | 8476 ft | 284 kts | 290° |
| 2025-09-05 13:58 | 37.46336 | 126.78474 | 7791 ft | 280 kts | 287° |
| 2025-09-05 13:58 | 37.47634 | 126.73861 | 7391 ft | 278 kts | 286° |
| 2025-09-05 13:59 | 37.48774 | 126.69247 | 6936 ft | 273 kts | 276° |
| 2025-09-05 14:00 | 37.49538 | 126.62198 | 6022 ft | 269 kts | 276° |
| 2025-09-05 14:00 | 37.51169 | 126.57970 | 5409 ft | 276 kts | 310° |
| 2025-09-05 14:01 | 37.53889 | 126.54583 | 4886 ft | 268 kts | 312° |
| 2025-09-05 14:01 | 37.56875 | 126.52257 | 4594 ft | 255 kts | 359° |
| 2025-09-05 14:02 | 37.59850 | 126.54335 | 4197 ft | 254 kts | 45° |
| 2025-09-05 14:02 | 37.61100 | 126.55916 | 3951 ft | 253 kts | 46° |
| 2025-09-05 14:02 | 37.63540 | 126.59019 | 3484 ft | 241 kts | 46° |
| 2025-09-05 14:03 | 37.65793 | 126.61856 | 3084 ft | 216 kts | 46° |
| 2025-09-05 14:04 | 37.65693 | 126.66409 | 2433 ft | 186 kts | 139° |
| 2025-09-05 14:04 | 37.63856 | 126.68711 | 1959 ft | 186 kts | 139° |
| 2025-09-05 14:04 | 37.62951 | 126.69852 | 1714 ft | 177 kts | 139° |
| 2025-09-05 14:05 | 37.60654 | 126.72745 | 1112 ft | 145 kts | 139° |
| 2025-09-05 14:05 | 37.59943 | 126.73638 | 935 ft | 144 kts | 138° |
| 2025-09-05 14:06 | 37.58514 | 126.75435 | 559 ft | 145 kts | 136° |
| 2025-09-05 14:06 | 37.57084 | 126.77233 | 165 ft | 145 kts | 136° |
| 2025-09-05 14:07 | 37.56010 | 126.78594 | 59 ft | 100 kts | 136° |
| 2025-09-05 14:08 | 37.55441 | 126.79475 | 64 ft | 24 kts | 102° |
| 2025-09-05 14:08 | 37.55446 | 126.79640 | 66 ft | 0 kts | 68° |
| 2025-09-05 14:09 | 37.55472 | 126.79690 | 65 ft | 17 kts | 50° |
| 2025-09-05 14:10 | 37.55732 | 126.79644 | 63 ft | 21 kts | 346° |
| 2025-09-05 14:10 | 37.55823 | 126.79698 | 63 ft | 9 kts | 134° |
| 2025-09-05 14:11 | 37.55663 | 126.79892 | 64 ft | 18 kts | 135° |
| 2025-09-05 14:12 | 37.55522 | 126.80245 | 59 ft | 14 kts | 46° |
| 2025-09-05 14:12 | 37.55501 | 126.80436 | 62 ft | 13 kts | 87° |
| 2025-09-05 14:13 | 37.55566 | 126.80533 | 57 ft | 2 kts | 44° |
| 2025-09-05 14:13 | 37.55569 | 126.80536 | 57 ft | 0 kts | 44° |